createdAt,value
2019-05-27T00:00:53.509Z,0
2019-05-27T00:01:53.730Z,0
2019-05-27T00:02:53.517Z,0
2019-05-27T00:03:55.607Z,0
2019-05-27T00:04:53.727Z,0
2019-05-27T00:05:53.761Z,0
2019-05-27T00:06:53.728Z,0
2019-05-27T00:07:53.708Z,0
2019-05-27T00:08:55.144Z,0
2019-05-27T00:09:56.730Z,0
2019-05-27T00:10:53.445Z,0
2019-05-27T00:11:53.433Z,0
2019-05-27T00:12:53.821Z,0
2019-05-27T00:13:53.939Z,0
2019-05-27T00:14:53.990Z,0
2019-05-27T00:15:53.940Z,0
2019-05-27T00:16:53.764Z,0
2019-05-27T00:17:53.356Z,0
2019-05-27T00:18:53.452Z,0
2019-05-27T00:19:59.776Z,0
2019-05-27T00:20:56.725Z,0
2019-05-27T00:21:53.969Z,0
2019-05-27T00:22:53.708Z,0
2019-05-27T00:23:53.398Z,0
2019-05-27T00:24:53.604Z,0
2019-05-27T00:25:53.639Z,0
2019-05-27T00:26:53.644Z,0
2019-05-27T00:27:53.641Z,0
2019-05-27T00:28:53.380Z,0
2019-05-27T00:29:54.752Z,0
2019-05-27T00:30:56.667Z,0
2019-05-27T00:31:53.640Z,0
2019-05-27T00:32:53.896Z,0
2019-05-27T00:33:53.645Z,0
2019-05-27T00:34:53.637Z,0
2019-05-27T00:35:53.650Z,0
2019-05-27T00:36:53.621Z,0
2019-05-27T00:37:53.857Z,0
2019-05-27T00:38:53.371Z,0
2019-05-27T00:39:53.930Z,0
2019-05-27T00:40:53.617Z,0
2019-05-27T00:41:55.060Z,0
2019-05-27T00:42:53.132Z,0
2019-05-27T00:43:53.359Z,0
2019-05-27T00:44:53.363Z,0
2019-05-27T00:45:53.663Z,0
2019-05-27T00:46:53.340Z,0
2019-05-27T00:47:53.365Z,0
2019-05-27T00:48:53.849Z,0
2019-05-27T00:49:53.591Z,0
2019-05-27T00:50:53.845Z,0
2019-05-27T00:51:54.770Z,0
2019-05-27T00:52:56.409Z,0
2019-05-27T00:53:53.565Z,0
2019-05-27T00:54:53.586Z,0
2019-05-27T00:55:53.598Z,0
2019-05-27T00:56:53.568Z,0
2019-05-27T00:57:53.329Z,0
2019-05-27T00:58:53.807Z,0
2019-05-27T00:59:53.553Z,0
2019-05-27T01:00:53.897Z,0
2019-05-27T01:01:53.323Z,0
2019-05-27T01:02:59.603Z,0
2019-05-27T01:03:56.909Z,0
2019-05-27T01:04:53.917Z,0
2019-05-27T01:05:53.551Z,0
2019-05-27T01:06:53.588Z,0
2019-05-27T01:07:53.835Z,0
2019-05-27T01:08:53.545Z,0
2019-05-27T01:09:53.297Z,0
2019-05-27T01:10:53.790Z,0
2019-05-27T01:11:53.861Z,0
2019-05-27T01:12:53.552Z,0
2019-05-27T01:13:56.576Z,0
2019-05-27T01:14:53.796Z,0
2019-05-27T01:15:53.550Z,0
2019-05-27T01:16:53.774Z,0
2019-05-27T01:17:53.541Z,0
2019-05-27T01:18:53.534Z,0
2019-05-27T01:19:53.537Z,0
2019-05-27T01:20:53.788Z,0
2019-05-27T01:21:53.777Z,0
2019-05-27T01:22:53.300Z,0
2019-05-27T01:23:53.221Z,0
2019-05-27T01:24:56.554Z,0
2019-05-27T01:25:53.753Z,0
2019-05-27T01:26:53.501Z,0
2019-05-27T01:27:53.500Z,0
2019-05-27T01:28:53.518Z,0
2019-05-27T01:29:53.526Z,0
2019-05-27T01:30:53.263Z,0
2019-05-27T01:31:53.548Z,0
2019-05-27T01:32:53.254Z,0
2019-05-27T01:33:53.567Z,0
2019-05-27T01:34:56.619Z,0
2019-05-27T01:35:56.529Z,0
2019-05-27T01:36:52.988Z,0
2019-05-27T01:37:53.532Z,0
2019-05-27T01:38:53.491Z,0
2019-05-27T01:39:55.571Z,0
2019-05-27T01:40:53.475Z,0
2019-05-27T01:41:53.221Z,0
2019-05-27T01:42:53.573Z,0
2019-05-27T01:43:53.450Z,0
2019-05-27T01:44:53.457Z,0
2019-05-27T01:45:59.968Z,0
2019-05-27T01:46:56.736Z,0
2019-05-27T01:47:53.208Z,0
2019-05-27T01:48:53.200Z,0
2019-05-27T01:49:53.443Z,0
2019-05-27T01:50:52.946Z,0
2019-05-27T01:51:53.476Z,0
2019-05-27T01:52:53.689Z,0
2019-05-27T01:53:53.180Z,0
2019-05-27T01:54:53.424Z,0
2019-05-27T01:55:53.166Z,0
2019-05-27T01:56:56.246Z,0
2019-05-27T01:57:53.421Z,0
2019-05-27T01:58:53.160Z,0
2019-05-27T01:59:53.669Z,0
2019-05-27T02:00:54.769Z,0
2019-05-27T02:01:53.739Z,0
2019-05-27T02:02:53.423Z,0
2019-05-27T02:03:53.450Z,0
2019-05-27T02:04:53.295Z,0
2019-05-27T02:05:53.221Z,0
2019-05-27T02:06:54.066Z,0
2019-05-27T02:07:56.682Z,0
2019-05-27T02:08:53.142Z,0
2019-05-27T02:09:53.682Z,0
2019-05-27T02:10:53.140Z,0
2019-05-27T02:11:53.115Z,0
2019-05-27T02:12:53.771Z,0
2019-05-27T02:13:53.368Z,0
2019-05-27T02:14:53.197Z,0
2019-05-27T02:15:53.365Z,0
2019-05-27T02:16:52.871Z,0
2019-05-27T02:17:56.262Z,0
2019-05-27T02:18:56.138Z,0
2019-05-27T02:19:53.609Z,0
2019-05-27T02:20:53.118Z,0
2019-05-27T02:21:53.619Z,0
2019-05-27T02:22:53.352Z,0
2019-05-27T02:23:53.335Z,0
2019-05-27T02:24:53.330Z,0
2019-05-27T02:25:53.609Z,0
2019-05-27T02:26:53.336Z,0
2019-05-27T02:27:53.339Z,0
2019-05-27T02:28:56.106Z,0
2019-05-27T02:29:56.362Z,0
2019-05-27T02:30:53.350Z,0
2019-05-27T02:31:53.583Z,0
2019-05-27T02:32:53.371Z,0
2019-05-27T02:33:53.082Z,0
2019-05-27T02:34:53.093Z,0
2019-05-27T02:35:53.320Z,0
2019-05-27T02:36:53.338Z,0
2019-05-27T02:37:53.336Z,0
2019-05-27T02:38:53.836Z,0
2019-05-27T02:39:56.345Z,0
2019-05-27T02:40:53.562Z,0
2019-05-27T02:41:53.579Z,0
2019-05-27T02:42:53.579Z,0
2019-05-27T02:43:53.560Z,0
2019-05-27T02:44:53.354Z,0
2019-05-27T02:45:53.578Z,4
2019-05-27T02:46:53.600Z,4
2019-05-27T02:47:52.856Z,4
2019-05-27T02:48:53.614Z,4
2019-05-27T02:49:54.706Z,0
2019-05-27T02:50:55.818Z,0
2019-05-27T02:51:53.532Z,4
2019-05-27T02:52:53.262Z,4
2019-05-27T02:53:53.055Z,4
2019-05-27T02:54:53.253Z,4
2019-05-27T02:55:53.251Z,4
2019-05-27T02:56:53.246Z,8
2019-05-27T02:57:53.510Z,4
2019-05-27T02:58:53.242Z,8
2019-05-27T02:59:53.266Z,8
2019-05-27T03:00:56.258Z,12
2019-05-27T03:01:56.980Z,12
2019-05-27T03:02:53.287Z,12
2019-05-27T03:03:53.532Z,16
2019-05-27T03:04:53.494Z,16
2019-05-27T03:05:53.467Z,16
2019-05-27T03:06:57.503Z,20
2019-05-27T03:07:53.205Z,24
2019-05-27T03:08:53.575Z,28
2019-05-27T03:09:53.454Z,32
2019-05-27T03:10:53.232Z,36
2019-05-27T03:11:58.003Z,40
2019-05-27T03:12:56.490Z,44
2019-05-27T03:13:53.461Z,52
2019-05-27T03:14:53.446Z,56
2019-05-27T03:15:53.438Z,64
2019-05-27T03:16:58.548Z,68
2019-05-27T03:17:53.231Z,80
2019-05-27T03:18:53.177Z,88
2019-05-27T03:19:53.172Z,96
2019-05-27T03:20:53.406Z,104
2019-05-27T03:21:53.151Z,116
2019-05-27T03:22:59.412Z,124
2019-05-27T03:23:53.409Z,140
2019-05-27T03:24:53.408Z,152
2019-05-27T03:25:53.413Z,164
2019-05-27T03:26:53.150Z,176
2019-05-27T03:27:53.152Z,192
2019-05-27T03:28:52.887Z,208
2019-05-27T03:29:53.376Z,228
2019-05-27T03:30:53.222Z,244
2019-05-27T03:31:52.936Z,264
2019-05-27T03:32:54.364Z,292
2019-05-27T03:33:56.422Z,320
2019-05-27T03:34:53.409Z,348
2019-05-27T03:35:53.373Z,380
2019-05-27T03:36:53.104Z,408
2019-05-27T03:37:52.939Z,444
2019-05-27T03:38:52.875Z,480
2019-05-27T03:39:53.362Z,520
2019-05-27T03:40:52.866Z,556
2019-05-27T03:41:53.097Z,596
2019-05-27T03:42:53.344Z,640
2019-05-27T03:43:56.365Z,684
2019-05-27T03:44:56.139Z,724
2019-05-27T03:45:53.090Z,768
2019-05-27T03:46:53.355Z,812
2019-05-27T03:47:53.333Z,856
2019-05-27T03:48:53.327Z,904
2019-05-27T03:49:53.101Z,952
2019-05-27T03:50:53.330Z,1000
2019-05-27T03:51:53.319Z,1048
2019-05-27T03:52:53.168Z,1104
2019-05-27T03:53:53.048Z,1152
2019-05-27T03:54:56.080Z,1212
2019-05-27T03:55:53.054Z,1264
2019-05-27T03:56:53.305Z,1328
2019-05-27T03:57:53.162Z,1400
2019-05-27T03:58:53.313Z,1496
2019-05-27T03:59:53.066Z,1600
2019-05-27T04:00:53.079Z,1716
2019-05-27T04:01:53.306Z,1868
2019-05-27T04:02:57.118Z,2000
2019-05-27T04:03:52.764Z,2040
2019-05-27T04:04:53.311Z,2056
2019-05-27T04:05:54.436Z,2088
2019-05-27T04:06:53.018Z,2164
2019-05-27T04:07:52.518Z,2212
2019-05-27T04:08:53.077Z,2248
2019-05-27T04:09:53.256Z,2372
2019-05-27T04:10:53.397Z,2604
2019-05-27T04:11:53.276Z,2764
2019-05-27T04:12:52.781Z,2784
2019-05-27T04:13:53.277Z,2732
2019-05-27T04:14:53.267Z,2764
2019-05-27T04:15:54.180Z,2880
2019-05-27T04:16:56.034Z,3024
2019-05-27T04:17:52.956Z,3056
2019-05-27T04:18:53.017Z,3108
2019-05-27T04:19:53.234Z,3360
2019-05-27T04:20:52.997Z,3792
2019-05-27T04:21:53.234Z,4264
2019-05-27T04:22:53.019Z,4536
2019-05-27T04:23:58.115Z,4516
2019-05-27T04:24:53.222Z,4352
2019-05-27T04:25:52.980Z,4532
2019-05-27T04:26:56.025Z,4736
2019-05-27T04:27:56.004Z,4716
2019-05-27T04:28:57.146Z,4160
2019-05-27T04:29:52.972Z,3936
2019-05-27T04:30:53.219Z,4164
2019-05-27T04:31:52.731Z,4640
2019-05-27T04:32:53.280Z,4932
2019-05-27T04:33:52.958Z,4992
2019-05-27T04:34:52.472Z,4840
2019-05-27T04:35:53.223Z,4644
2019-05-27T04:36:52.969Z,4276
2019-05-27T04:37:55.362Z,3992
2019-05-27T04:38:53.298Z,4012
2019-05-27T04:39:52.964Z,4048
2019-05-27T04:40:53.225Z,4048
2019-05-27T04:41:52.968Z,4188
2019-05-27T04:42:52.716Z,4228
2019-05-27T04:43:53.228Z,3280
2019-05-27T04:44:53.224Z,3316
2019-05-27T04:45:53.327Z,3464
2019-05-27T04:46:53.202Z,3504
2019-05-27T04:47:55.403Z,3544
2019-05-27T04:48:56.005Z,3576
2019-05-27T04:49:53.203Z,3592
2019-05-27T04:50:52.980Z,3704
2019-05-27T04:51:52.690Z,3832
2019-05-27T04:52:52.975Z,3956
2019-05-27T04:53:53.180Z,5404
2019-05-27T04:54:52.733Z,3860
2019-05-27T04:55:56.895Z,4124
2019-05-27T04:56:53.192Z,4504
2019-05-27T04:57:52.456Z,4512
2019-05-27T04:58:55.726Z,4556
2019-05-27T04:59:56.230Z,4556
2019-05-27T05:00:53.226Z,4464
2019-05-27T05:01:53.197Z,4860
2019-05-27T05:02:52.888Z,4536
2019-05-27T05:03:53.180Z,7040
2019-05-27T05:04:52.935Z,5244
2019-05-27T05:05:52.941Z,4856
2019-05-27T05:06:53.175Z,5140
2019-05-27T05:07:52.682Z,5176
2019-05-27T05:08:52.667Z,5180
2019-05-27T05:09:59.463Z,5296
2019-05-27T05:10:56.295Z,5376
2019-05-27T05:11:53.178Z,5472
2019-05-27T05:12:52.954Z,5580
2019-05-27T05:13:55.556Z,5588
2019-05-27T05:14:53.372Z,5648
2019-05-27T05:15:53.147Z,5792
2019-05-27T05:16:53.324Z,5964
2019-05-27T05:17:52.905Z,6060
2019-05-27T05:19:06.786Z,6064
2019-05-27T05:19:52.647Z,9480
2019-05-27T05:20:56.212Z,5820
2019-05-27T05:21:52.916Z,5728
2019-05-27T05:22:52.408Z,5940
2019-05-27T05:23:53.236Z,5840
2019-05-27T05:24:53.134Z,5636
2019-05-27T05:25:53.148Z,5468
2019-05-27T05:26:53.162Z,5320
2019-05-27T05:27:52.641Z,5308
2019-05-27T05:28:52.950Z,5376
2019-05-27T05:29:52.903Z,5552
2019-05-27T05:30:53.079Z,5804
2019-05-27T05:31:57.258Z,6184
2019-05-27T05:32:52.904Z,6420
2019-05-27T05:33:52.873Z,6652
2019-05-27T05:34:53.248Z,9864
2019-05-27T05:35:52.629Z,10776
2019-05-27T05:36:53.189Z,7112
2019-05-27T05:37:52.936Z,7264
2019-05-27T05:38:53.132Z,7436
2019-05-27T05:39:54.384Z,7472
2019-05-27T05:40:52.883Z,7460
2019-05-27T05:41:56.159Z,7460
2019-05-27T05:42:59.246Z,7424
2019-05-27T05:43:52.891Z,13048
2019-05-27T05:44:53.134Z,7444
2019-05-27T05:45:52.647Z,7420
2019-05-27T05:46:52.636Z,7448
2019-05-27T05:47:52.910Z,7556
2019-05-27T05:48:52.999Z,7512
2019-05-27T05:49:52.642Z,7648
2019-05-27T05:50:53.168Z,7748
2019-05-27T05:51:52.655Z,7980
2019-05-27T05:53:01.230Z,8264
2019-05-27T05:53:56.189Z,8468
2019-05-27T05:54:53.163Z,8844
2019-05-27T05:55:56.172Z,9212
2019-05-27T05:56:52.662Z,9688
2019-05-27T05:57:52.929Z,10564
2019-05-27T05:58:53.418Z,10692
2019-05-27T05:59:52.912Z,10492
2019-05-27T06:00:52.909Z,11256
2019-05-27T06:01:52.903Z,12504
2019-05-27T06:02:52.921Z,12104
2019-05-27T06:03:57.047Z,12816
2019-05-27T06:04:52.404Z,10752
2019-05-27T06:05:53.145Z,12848
2019-05-27T06:06:52.680Z,12104
2019-05-27T06:07:52.711Z,12228
2019-05-27T06:08:53.163Z,12860
2019-05-27T06:09:52.650Z,12756
2019-05-27T06:10:52.919Z,12668
2019-05-27T06:11:52.659Z,12372
2019-05-27T06:12:52.670Z,11892
2019-05-27T06:13:53.272Z,12292
2019-05-27T06:14:55.961Z,12896
2019-05-27T06:15:53.503Z,13588
2019-05-27T06:16:52.740Z,13876
2019-05-27T06:17:52.925Z,12508
2019-05-27T06:18:53.005Z,11400
2019-05-27T06:19:55.594Z,10352
2019-05-27T06:20:52.686Z,10456
2019-05-27T06:21:53.229Z,11524
2019-05-27T06:22:52.495Z,13752
2019-05-27T06:23:53.193Z,14364
2019-05-27T06:24:56.418Z,14204
2019-05-27T06:25:54.545Z,14840
2019-05-27T06:26:52.963Z,15580
2019-05-27T06:27:52.727Z,14972
2019-05-27T06:28:52.991Z,14496
2019-05-27T06:29:52.981Z,11776
2019-05-27T06:30:53.251Z,12836
2019-05-27T06:31:52.728Z,14044
2019-05-27T06:32:52.774Z,14068
2019-05-27T06:33:52.765Z,13264
2019-05-27T06:34:52.992Z,13152
2019-05-27T06:35:56.062Z,13104
2019-05-27T06:37:01.508Z,13080
2019-05-27T06:37:52.751Z,13212
2019-05-27T06:39:10.957Z,12688
2019-05-27T06:39:52.524Z,13928
2019-05-27T06:41:13.828Z,13960
2019-05-27T06:41:53.021Z,12908
2019-05-27T06:42:53.058Z,12772
2019-05-27T06:43:53.056Z,12732
2019-05-27T06:44:53.040Z,12268
2019-05-27T06:45:53.305Z,12640
2019-05-27T06:46:56.868Z,12676
2019-05-27T06:47:53.051Z,12028
2019-05-27T06:48:53.098Z,13772
2019-05-27T06:50:17.236Z,12636
2019-05-27T06:50:53.318Z,12144
2019-05-27T06:51:53.336Z,11404
2019-05-27T06:52:54.700Z,12632
2019-05-27T06:53:52.605Z,13072
2019-05-27T06:54:53.077Z,13248
2019-05-27T06:55:54.428Z,12308
2019-05-27T06:56:53.707Z,12208
2019-05-27T06:57:55.902Z,12372
2019-05-27T06:58:53.098Z,12408
2019-05-27T06:59:53.094Z,11856
2019-05-27T07:00:53.399Z,12148
2019-05-27T07:01:53.465Z,12700
2019-05-27T07:02:53.155Z,12600
2019-05-27T07:03:53.127Z,11764
2019-05-27T07:04:54.096Z,12420
2019-05-27T07:05:53.400Z,11756
2019-05-27T07:06:53.136Z,11892
2019-05-27T07:07:56.426Z,12336
2019-05-27T07:08:54.748Z,12712
2019-05-27T07:09:53.459Z,13136
2019-05-27T07:10:53.591Z,13696
2019-05-27T07:11:53.237Z,13148
2019-05-27T07:12:57.015Z,14472
2019-05-27T07:13:53.619Z,13924
2019-05-27T07:14:53.276Z,14460
2019-05-27T07:15:53.172Z,14104
2019-05-27T07:16:53.208Z,11380
2019-05-27T07:17:53.042Z,11936
2019-05-27T07:18:54.418Z,12156
2019-05-27T07:19:56.606Z,11808
2019-05-27T07:20:53.282Z,11320
2019-05-27T07:21:53.495Z,12252
2019-05-27T07:22:52.977Z,13236
2019-05-27T07:23:53.022Z,12340
2019-05-27T07:24:53.486Z,13072
2019-05-27T07:25:53.245Z,13580
2019-05-27T07:26:53.020Z,13732
2019-05-27T07:27:53.352Z,13168
2019-05-27T07:28:53.272Z,13584
2019-05-27T07:29:55.810Z,13272
2019-05-27T07:31:11.771Z,14016
2019-05-27T07:31:57.377Z,13892
2019-05-27T07:32:53.038Z,13296
2019-05-27T07:33:53.448Z,13432
2019-05-27T07:34:53.418Z,13260
2019-05-27T07:35:53.370Z,13208
2019-05-27T07:36:53.556Z,13768
2019-05-27T07:37:52.849Z,13636
2019-05-27T07:38:53.571Z,13716
2019-05-27T07:39:54.177Z,13992
2019-05-27T07:40:56.373Z,14016
2019-05-27T07:41:53.397Z,13832
2019-05-27T07:42:53.371Z,13748
2019-05-27T07:43:53.358Z,13780
2019-05-27T07:44:53.917Z,13832
2019-05-27T07:45:53.366Z,13680
2019-05-27T07:46:58.575Z,13596
2019-05-27T07:47:53.375Z,13700
2019-05-27T07:48:53.112Z,14232
2019-05-27T07:49:57.049Z,14096
2019-05-27T07:50:58.245Z,13728
2019-05-27T07:51:54.969Z,13996
2019-05-27T07:52:53.658Z,12964
2019-05-27T07:53:53.430Z,12460
2019-05-27T07:55:01.192Z,12136
2019-05-27T07:55:56.697Z,14340
2019-05-27T07:56:53.185Z,13920
2019-05-27T07:57:52.940Z,14232
2019-05-27T07:58:53.687Z,14624
2019-05-27T07:59:53.472Z,14804
2019-05-27T08:00:53.455Z,15068
2019-05-27T08:02:47.440Z,15036
2019-05-27T08:03:00.156Z,14848
2019-05-27T08:03:56.908Z,8804
2019-05-27T08:04:56.870Z,9336
2019-05-27T08:05:57.104Z,15084
2019-05-27T08:06:56.644Z,15576
2019-05-27T08:07:57.156Z,16256
2019-05-27T08:09:09.190Z,15388
2019-05-27T08:09:57.144Z,16224
2019-05-27T08:11:09.464Z,13332
2019-05-27T08:11:56.669Z,17792
2019-05-27T08:12:59.723Z,10688
2019-05-27T08:14:03.449Z,10496
2019-05-27T08:14:56.690Z,10840
2019-05-27T08:15:56.975Z,12732
2019-05-27T08:16:57.205Z,17184
2019-05-27T18:35:41.680Z,332
2019-05-27T18:36:41.586Z,308
2019-05-27T18:37:41.066Z,292
2019-05-27T18:38:41.300Z,276
2019-05-27T18:39:41.580Z,264
2019-05-27T18:40:42.616Z,260
2019-05-27T18:41:41.827Z,252
2019-05-27T18:42:41.849Z,240
2019-05-27T18:43:41.500Z,232
2019-05-27T18:44:44.853Z,228
2019-05-27T18:45:41.320Z,216
2019-05-27T18:46:41.316Z,208
2019-05-27T18:47:41.299Z,196
2019-05-27T18:48:41.346Z,188
2019-05-27T18:49:41.589Z,180
2019-05-27T18:50:41.857Z,172
2019-05-27T18:51:41.823Z,164
2019-05-27T18:52:41.821Z,152
2019-05-27T18:53:41.803Z,144
2019-05-27T18:54:44.365Z,132
2019-05-27T18:55:47.185Z,128
2019-05-27T18:56:41.815Z,120
2019-05-27T18:57:41.803Z,112
2019-05-27T18:58:41.568Z,104
2019-05-27T18:59:41.545Z,96
2019-05-27T19:00:47.265Z,84
2019-05-27T19:01:41.296Z,76
2019-05-27T19:02:41.921Z,68
2019-05-27T19:03:41.294Z,60
2019-05-27T19:04:41.310Z,56
2019-05-27T19:05:47.339Z,52
2019-05-27T19:06:44.854Z,48
2019-05-27T19:07:41.803Z,52
2019-05-27T19:08:41.820Z,48
2019-05-27T19:09:41.827Z,44
2019-05-27T19:10:41.053Z,44
2019-05-27T19:11:42.422Z,40
2019-05-27T19:12:41.558Z,36
2019-05-27T19:13:44.582Z,32
2019-05-27T19:14:41.044Z,32
2019-05-27T19:15:41.871Z,28
2019-05-27T19:16:47.992Z,24
2019-05-27T19:17:49.108Z,20
2019-05-27T19:18:41.377Z,20
2019-05-27T19:19:41.832Z,16
2019-05-27T19:20:41.568Z,16
2019-05-27T19:21:41.821Z,16
2019-05-27T19:22:41.583Z,16
2019-05-27T19:23:41.313Z,16
2019-05-27T19:24:43.742Z,16
2019-05-27T19:25:41.810Z,12
2019-05-27T19:26:42.193Z,12
2019-05-27T19:27:48.764Z,12
2019-05-27T19:28:41.648Z,8
2019-05-27T19:29:41.814Z,8
2019-05-27T19:30:44.108Z,4
2019-05-27T19:31:41.316Z,8
2019-05-27T19:32:42.067Z,4
2019-05-27T19:33:41.561Z,8
2019-05-27T19:34:41.569Z,4
2019-05-27T19:35:41.881Z,4
2019-05-27T19:36:41.591Z,0
2019-05-27T19:37:44.168Z,4
2019-05-27T19:38:42.728Z,4
2019-05-27T19:39:41.814Z,4
2019-05-27T19:40:41.562Z,4
2019-05-27T19:41:45.420Z,0
2019-05-27T19:42:41.303Z,0
2019-05-27T19:43:41.574Z,0
2019-05-27T19:44:41.832Z,0
2019-05-27T19:45:41.571Z,0
2019-05-27T19:46:41.827Z,0
2019-05-27T19:47:41.954Z,0
2019-05-27T19:48:45.371Z,0
2019-05-27T19:49:44.859Z,0
2019-05-27T19:50:41.570Z,0
2019-05-27T19:51:43.370Z,0
2019-05-27T19:52:41.606Z,0
2019-05-27T19:53:41.588Z,0
2019-05-27T19:54:45.397Z,0
2019-05-27T19:55:41.572Z,0
2019-05-27T19:56:41.631Z,0
2019-05-27T19:57:57.385Z,0
2019-05-27T19:58:55.500Z,0
2019-05-27T19:59:46.970Z,0
2019-05-27T20:00:41.556Z,0
2019-05-27T20:01:41.318Z,0
2019-05-27T20:02:41.597Z,0
2019-05-27T20:03:41.330Z,0
2019-05-27T20:04:41.568Z,0
2019-05-27T20:05:41.568Z,0
2019-05-27T20:06:41.606Z,0
2019-05-27T20:07:41.572Z,0
2019-05-27T20:08:41.871Z,0
2019-05-27T20:09:42.176Z,0
2019-05-27T20:10:44.612Z,0
2019-05-27T20:11:41.823Z,0
2019-05-27T20:12:41.567Z,0
2019-05-27T20:13:41.568Z,0
2019-05-27T20:14:42.369Z,0
2019-05-27T20:15:41.571Z,0
2019-05-27T20:16:41.575Z,0
2019-05-27T20:17:41.662Z,0
2019-05-27T20:18:41.556Z,0
2019-05-27T20:19:41.941Z,0
2019-05-27T20:20:44.364Z,0
2019-05-27T20:21:44.339Z,0
2019-05-27T20:22:41.320Z,0
2019-05-27T20:23:41.618Z,0
2019-05-27T20:24:41.594Z,0
2019-05-27T20:25:41.534Z,0
2019-05-27T20:26:41.721Z,0
2019-05-27T20:27:41.336Z,0
2019-05-27T20:28:41.881Z,0
2019-05-27T20:29:41.387Z,0
2019-05-27T20:30:41.829Z,0
2019-05-27T20:31:44.664Z,0
2019-05-27T20:32:44.679Z,0
2019-05-27T20:33:41.824Z,0
2019-05-27T20:34:41.403Z,0
2019-05-27T20:35:41.332Z,0
2019-05-27T20:36:41.827Z,0
2019-05-27T20:37:41.587Z,0
2019-05-27T20:38:41.365Z,0
2019-05-27T20:39:45.100Z,0
2019-05-27T20:40:41.291Z,0
2019-05-27T20:41:41.337Z,0
2019-05-27T20:42:47.888Z,0
2019-05-27T20:43:41.596Z,0
2019-05-27T20:44:41.593Z,0
2019-05-27T20:45:41.567Z,0
2019-05-27T20:46:41.802Z,0
2019-05-27T20:47:41.828Z,0
2019-05-27T20:48:41.295Z,0
2019-05-27T20:49:41.799Z,0
2019-05-27T20:50:41.304Z,0
2019-05-27T20:51:41.607Z,0
2019-05-27T20:52:43.008Z,0
2019-05-27T20:53:44.840Z,0
2019-05-27T20:54:41.805Z,0
2019-05-27T20:55:41.548Z,0
2019-05-27T20:56:41.296Z,0
2019-05-27T20:57:41.053Z,0
2019-05-27T20:58:41.540Z,0
2019-05-27T20:59:41.543Z,0
2019-05-27T21:00:41.024Z,0
2019-05-27T21:01:41.823Z,0
2019-05-27T21:02:41.892Z,0
2019-05-27T21:03:47.407Z,0
2019-05-27T21:04:43.212Z,0
2019-05-27T21:05:41.542Z,0
2019-05-27T21:06:41.288Z,0
2019-05-27T21:07:41.037Z,0
2019-05-27T21:08:41.559Z,0
2019-05-27T21:09:41.807Z,0
2019-05-27T21:10:41.540Z,0
2019-05-27T21:11:41.546Z,0
2019-05-27T21:12:41.285Z,0
2019-05-27T21:13:41.797Z,0
2019-05-27T21:14:44.333Z,0
2019-05-27T21:15:47.841Z,0
2019-05-27T21:16:41.542Z,0
2019-05-27T21:17:41.303Z,0
2019-05-27T21:18:41.528Z,0
2019-05-27T21:19:41.040Z,0
2019-05-27T21:20:41.977Z,0
2019-05-27T21:21:42.803Z,0
2019-05-27T21:22:41.376Z,0
2019-05-27T21:23:41.320Z,0
2019-05-27T21:24:41.562Z,0
2019-05-27T21:25:47.801Z,0
2019-05-27T21:26:41.537Z,0
2019-05-27T21:27:41.791Z,0
2019-05-27T21:28:48.042Z,0
2019-05-27T21:29:41.794Z,0
2019-05-27T21:30:43.241Z,0
2019-05-27T21:31:41.538Z,0
2019-05-27T21:32:47.977Z,0
2019-05-27T21:33:41.294Z,0
2019-05-27T21:34:41.791Z,0
2019-05-27T21:35:42.431Z,0
2019-05-27T21:36:44.898Z,0
2019-05-27T21:37:41.796Z,0
2019-05-27T21:38:41.798Z,0
2019-05-27T21:39:41.270Z,0
2019-05-27T21:40:41.793Z,0
2019-05-27T21:41:41.627Z,0
2019-05-27T21:42:41.829Z,0
2019-05-27T21:43:41.297Z,0
2019-05-27T21:44:41.551Z,0
2019-05-27T21:45:43.581Z,0
2019-05-27T21:46:44.866Z,0
2019-05-27T21:47:44.814Z,0
2019-05-27T21:48:41.503Z,0
2019-05-27T21:49:41.794Z,0
2019-05-27T21:50:41.517Z,0
2019-05-27T21:51:41.780Z,0
2019-05-27T21:52:41.762Z,0
2019-05-27T21:53:41.539Z,0
2019-05-27T21:54:41.538Z,0
2019-05-27T21:55:41.253Z,0
2019-05-27T21:56:41.262Z,0
2019-05-27T21:57:44.290Z,0
2019-05-27T21:58:56.342Z,0
2019-05-27T21:59:41.794Z,0
2019-05-27T22:00:41.777Z,0
2019-05-27T22:01:41.515Z,0
2019-05-27T22:02:41.498Z,0
2019-05-27T22:03:41.250Z,0
2019-05-27T22:04:41.546Z,0
2019-05-27T22:05:41.494Z,0
2019-05-27T22:06:41.781Z,0
2019-05-27T22:07:41.773Z,0
2019-05-27T22:08:47.776Z,0
2019-05-27T22:09:41.290Z,0
2019-05-27T22:10:41.491Z,0
2019-05-27T22:11:41.487Z,0
2019-05-27T22:12:41.498Z,0
2019-05-27T22:13:41.749Z,0
2019-05-27T22:14:41.500Z,0
2019-05-27T22:15:41.485Z,0
2019-05-27T22:16:41.495Z,0
2019-05-27T22:17:41.232Z,0
2019-05-27T22:18:42.910Z,0
2019-05-27T22:19:44.818Z,0
2019-05-27T22:20:41.520Z,0
2019-05-27T22:21:41.782Z,0
2019-05-27T22:22:41.498Z,0
2019-05-27T22:23:41.748Z,0
2019-05-27T22:24:41.837Z,0
2019-05-27T22:25:41.537Z,0
2019-05-27T22:26:41.503Z,0
2019-05-27T22:27:41.305Z,0
2019-05-27T22:28:41.473Z,0
2019-05-27T22:29:47.895Z,0
2019-05-27T22:30:44.537Z,0
2019-05-27T22:31:41.226Z,0
2019-05-27T22:32:41.234Z,0
2019-05-27T22:33:41.221Z,0
2019-05-27T22:34:41.854Z,0
2019-05-27T22:35:41.735Z,0
2019-05-27T22:36:41.739Z,0
2019-05-27T22:37:41.303Z,0
2019-05-27T22:38:41.497Z,0
2019-05-27T22:39:41.838Z,0
2019-05-27T22:40:44.496Z,0
2019-05-27T22:41:41.477Z,0
2019-05-27T22:42:41.224Z,0
2019-05-27T22:43:41.745Z,0
2019-05-27T22:44:41.785Z,0
2019-05-27T22:45:41.473Z,0
2019-05-27T22:46:41.471Z,0
2019-05-27T22:47:41.203Z,0
2019-05-27T22:48:41.740Z,0
2019-05-27T22:49:41.209Z,0
2019-05-27T22:50:41.494Z,0
2019-05-27T22:51:42.936Z,0
2019-05-27T22:52:41.719Z,0
2019-05-27T22:53:41.485Z,0
2019-05-27T22:54:41.473Z,0
2019-05-27T22:55:41.474Z,0
2019-05-27T22:56:41.455Z,0
2019-05-27T22:57:41.222Z,0
2019-05-27T22:58:41.709Z,0
2019-05-27T22:59:41.718Z,0
2019-05-27T23:00:41.777Z,0
2019-05-27T23:01:42.940Z,0
2019-05-27T23:02:44.491Z,0
2019-05-27T23:03:41.526Z,0
2019-05-27T23:04:41.816Z,0
2019-05-27T23:05:41.453Z,0
2019-05-27T23:06:41.712Z,0
2019-05-27T23:07:41.468Z,0
2019-05-27T23:08:41.732Z,0
2019-05-27T23:09:41.445Z,0
2019-05-27T23:10:41.443Z,0
2019-05-27T23:11:41.447Z,0
2019-05-27T23:12:44.798Z,0
2019-05-27T23:13:44.482Z,0
2019-05-27T23:14:41.455Z,0
2019-05-27T23:15:41.711Z,0
2019-05-27T23:16:41.447Z,0
2019-05-27T23:17:41.446Z,0
2019-05-27T23:18:41.179Z,0
2019-05-27T23:19:41.707Z,0
2019-05-27T23:20:41.435Z,0
2019-05-27T23:21:41.722Z,0
2019-05-27T23:22:41.228Z,0
2019-05-27T23:23:44.474Z,0
2019-05-27T23:24:41.703Z,0
